sensor_id;sensor_type;location;lat;lon;timestamp;temperature;humidity
19206;DHT22;59358;52.134;5.596;2023-01-01T00:00:18;15.60;99.90
19206;DHT22;59358;52.134;5.596;2023-01-01T00:02:44;15.70;99.90
19206;DHT22;59358;52.134;5.596;2023-01-01T00:05:11;15.60;99.90
19206;DHT22;59358;52.134;5.596;2023-01-01T00:07:38;15.50;99.90
19206;DHT22;59358;52.134;5.596;2023-01-01T00:10:06;15.60;99.90
19206;DHT22;59358;52.134;5.596;2023-01-01T00:12:51;15.50;99.90
19206;DHT22;59358;52.134;5.596;2023-01-01T00:15:18;15.50;99.90
19206;DHT22;59358;52.134;5.596;2023-01-01T00:17:45;15.50;99.90
19206;DHT22;59358;52.134;5.596;2023-01-01T00:20:12;15.60;99.90
19206;DHT22;59358;52.134;5.596;2023-01-01T00:22:39;15.50;99.90
19206;DHT22;59358;52.134;5.596;2023-01-01T00:25:07;15.50;99.90
19206;DHT22;59358;52.134;5.596;2023-01-01T00:27:33;15.50;99.90
19206;DHT22;59358;52.134;5.596;2023-01-01T00:30:02;15.40;99.90
19206;DHT22;59358;52.134;5.596;2023-01-01T00:32:29;15.50;99.90
19206;DHT22;59358;52.134;5.596;2023-01-01T00:34:55;15.40;99.90
19206;DHT22;59358;52.134;5.596;2023-01-01T00:37:22;15.40;99.90
19206;DHT22;59358;52.134;5.596;2023-01-01T00:39:49;15.40;99.90
19206;DHT22;59358;52.134;5.596;2023-01-01T00:42:16;15.40;99.90
19206;DHT22;59358;52.134;5.596;2023-01-01T00:44:43;15.50;99.90
19206;DHT22;59358;52.134;5.596;2023-01-01T00:47:11;15.50;99.90
19206;DHT22;59358;52.134;5.596;2023-01-01T00:49:38;15.40;99.90
19206;DHT22;59358;52.134;5.596;2023-01-01T00:52:05;15.40;99.90
19206;DHT22;59358;52.134;5.596;2023-01-01T00:54:31;15.50;99.90
19206;DHT22;59358;52.134;5.596;2023-01-01T00:56:58;15.40;99.90
19206;DHT22;59358;52.134;5.596;2023-01-01T00:59:25;15.50;99.90
19206;DHT22;59358;52.134;5.596;2023-01-01T01:01:52;15.50;99.90
19206;DHT22;59358;52.134;5.596;2023-01-01T01:04:20;15.50;99.90
19206;DHT22;59358;52.134;5.596;2023-01-01T01:06:47;15.50;99.90
19206;DHT22;59358;52.134;5.596;2023-01-01T01:09:14;15.50;99.90
19206;DHT22;59358;52.134;5.596;2023-01-01T01:11:41;15.50;99.90
19206;DHT22;59358;52.134;5.596;2023-01-01T01:14:08;15.40;99.90
19206;DHT22;59358;52.134;5.596;2023-01-01T01:16:35;15.40;99.90
19206;DHT22;59358;52.134;5.596;2023-01-01T01:19:03;15.40;99.90
19206;DHT22;59358;52.134;5.596;2023-01-01T01:21:33;15.50;99.90
19206;DHT22;59358;52.134;5.596;2023-01-01T01:24:02;15.40;99.90
19206;DHT22;59358;52.134;5.596;2023-01-01T01:26:30;15.40;99.90
19206;DHT22;59358;52.134;5.596;2023-01-01T01:28:58;15.40;99.90
19206;DHT22;59358;52.134;5.596;2023-01-01T01:31:27;15.30;99.90
19206;DHT22;59358;52.134;5.596;2023-01-01T01:33:54;15.30;99.90
19206;DHT22;59358;52.134;5.596;2023-01-01T01:36:22;15.30;99.90
19206;DHT22;59358;52.134;5.596;2023-01-01T01:38:50;15.20;99.90
19206;DHT22;59358;52.134;5.596;2023-01-01T01:41:19;15.20;99.90
19206;DHT22;59358;52.134;5.596;2023-01-01T01:43:51;15.20;99.90
19206;DHT22;59358;52.134;5.596;2023-01-01T01:46:21;15.00;99.90
19206;DHT22;59358;52.134;5.596;2023-01-01T01:48:51;15.00;99.90
19206;DHT22;59358;52.134;5.596;2023-01-01T01:51:21;14.90;99.90
19206;DHT22;59358;52.134;5.596;2023-01-01T01:53:54;14.90;99.90
19206;DHT22;59358;52.134;5.596;2023-01-01T01:56:36;14.90;99.90
19206;DHT22;59358;52.134;5.596;2023-01-01T01:59:05;14.90;99.90
19206;DHT22;59358;52.134;5.596;2023-01-01T02:01:33;14.90;99.90
19206;DHT22;59358;52.134;5.596;2023-01-01T02:04:00;14.90;99.90
19206;DHT22;59358;52.134;5.596;2023-01-01T02:06:30;14.80;99.90
19206;DHT22;59358;52.134;5.596;2023-01-01T02:09:02;14.90;99.90
19206;DHT22;59358;52.134;5.596;2023-01-01T02:11:29;14.80;99.90
19206;DHT22;59358;52.134;5.596;2023-01-01T02:14:00;14.80;99.90
19206;DHT22;59358;52.134;5.596;2023-01-01T02:16:35;14.90;99.90
19206;DHT22;59358;52.134;5.596;2023-01-01T02:19:08;14.90;99.90
19206;DHT22;59358;52.134;5.596;2023-01-01T02:21:41;14.90;99.90
19206;DHT22;59358;52.134;5.596;2023-01-01T02:24:32;14.90;99.90
19206;DHT22;59358;52.134;5.596;2023-01-01T02:27:03;14.80;99.90
19206;DHT22;59358;52.134;5.596;2023-01-01T02:29:38;14.80;99.90
19206;DHT22;59358;52.134;5.596;2023-01-01T02:32:09;14.80;99.90
19206;DHT22;59358;52.134;5.596;2023-01-01T02:34:40;14.80;99.90
19206;DHT22;59358;52.134;5.596;2023-01-01T02:37:12;14.80;99.90
19206;DHT22;59358;52.134;5.596;2023-01-01T02:39:44;14.80;99.90
19206;DHT22;59358;52.134;5.596;2023-01-01T02:42:13;14.80;99.90
19206;DHT22;59358;52.134;5.596;2023-01-01T02:44:44;14.80;99.90
19206;DHT22;59358;52.134;5.596;2023-01-01T02:47:15;14.80;99.90
19206;DHT22;59358;52.134;5.596;2023-01-01T02:49:50;14.80;99.90
19206;DHT22;59358;52.134;5.596;2023-01-01T02:52:35;14.80;99.90
19206;DHT22;59358;52.134;5.596;2023-01-01T02:55:09;14.80;99.90
19206;DHT22;59358;52.134;5.596;2023-01-01T02:57:45;14.80;99.90
19206;DHT22;59358;52.134;5.596;2023-01-01T03:00:17;14.80;99.90
19206;DHT22;59358;52.134;5.596;2023-01-01T03:03:05;14.80;99.90
19206;DHT22;59358;52.134;5.596;2023-01-01T03:05:40;14.80;99.90
19206;DHT22;59358;52.134;5.596;2023-01-01T03:08:26;14.80;99.90
19206;DHT22;59358;52.134;5.596;2023-01-01T03:10:59;14.80;99.90
19206;DHT22;59358;52.134;5.596;2023-01-01T03:13:35;14.80;99.90
19206;DHT22;59358;52.134;5.596;2023-01-01T03:16:08;14.80;99.90
19206;DHT22;59358;52.134;5.596;2023-01-01T03:18:41;14.80;99.90
19206;DHT22;59358;52.134;5.596;2023-01-01T03:21:12;14.80;99.90
19206;DHT22;59358;52.134;5.596;2023-01-01T03:23:45;14.80;99.90
19206;DHT22;59358;52.134;5.596;2023-01-01T03:26:13;14.80;99.90
19206;DHT22;59358;52.134;5.596;2023-01-01T03:28:45;14.80;99.90
19206;DHT22;59358;52.134;5.596;2023-01-01T03:31:16;14.90;99.90
19206;DHT22;59358;52.134;5.596;2023-01-01T03:33:46;14.80;99.90
19206;DHT22;59358;52.134;5.596;2023-01-01T03:36:17;14.80;99.90
19206;DHT22;59358;52.134;5.596;2023-01-01T03:38:47;14.70;99.90
19206;DHT22;59358;52.134;5.596;2023-01-01T03:41:22;14.70;99.90
19206;DHT22;59358;52.134;5.596;2023-01-01T03:43:52;14.70;99.90
19206;DHT22;59358;52.134;5.596;2023-01-01T03:46:25;14.80;99.90
19206;DHT22;59358;52.134;5.596;2023-01-01T03:48:53;14.80;99.90
19206;DHT22;59358;52.134;5.596;2023-01-01T03:51:29;14.80;99.90
19206;DHT22;59358;52.134;5.596;2023-01-01T03:54:01;14.80;99.90
19206;DHT22;59358;52.134;5.596;2023-01-01T03:56:36;14.80;99.90
19206;DHT22;59358;52.134;5.596;2023-01-01T03:59:08;14.80;99.90
19206;DHT22;59358;52.134;5.596;2023-01-01T04:01:41;14.80;99.90
19206;DHT22;59358;52.134;5.596;2023-01-01T04:04:11;14.80;99.90
19206;DHT22;59358;52.134;5.596;2023-01-01T04:06:38;14.80;99.90
19206;DHT22;59358;52.134;5.596;2023-01-01T04:09:08;14.80;99.90
19206;DHT22;59358;52.134;5.596;2023-01-01T04:11:40;14.80;99.90
19206;DHT22;59358;52.134;5.596;2023-01-01T04:14:26;14.70;99.90
19206;DHT22;59358;52.134;5.596;2023-01-01T04:16:55;14.50;99.90
19206;DHT22;59358;52.134;5.596;2023-01-01T04:19:22;14.30;99.90
19206;DHT22;59358;52.134;5.596;2023-01-01T04:21:49;14.10;99.90
19206;DHT22;59358;52.134;5.596;2023-01-01T04:24:16;13.90;99.90
19206;DHT22;59358;52.134;5.596;2023-01-01T04:26:43;13.90;99.90
19206;DHT22;59358;52.134;5.596;2023-01-01T04:29:10;13.80;99.90
19206;DHT22;59358;52.134;5.596;2023-01-01T04:31:37;13.80;99.90
19206;DHT22;59358;52.134;5.596;2023-01-01T04:34:06;13.70;99.90
19206;DHT22;59358;52.134;5.596;2023-01-01T04:36:33;13.60;99.90
19206;DHT22;59358;52.134;5.596;2023-01-01T04:39:00;13.50;99.90
19206;DHT22;59358;52.134;5.596;2023-01-01T04:41:27;13.40;99.90
19206;DHT22;59358;52.134;5.596;2023-01-01T04:43:54;13.40;99.90
19206;DHT22;59358;52.134;5.596;2023-01-01T04:46:22;13.30;99.90
19206;DHT22;59358;52.134;5.596;2023-01-01T04:48:49;13.10;99.90
19206;DHT22;59358;52.134;5.596;2023-01-01T04:51:20;13.00;99.90
19206;DHT22;59358;52.134;5.596;2023-01-01T04:53:47;13.00;99.90
19206;DHT22;59358;52.134;5.596;2023-01-01T04:56:16;13.00;99.90
19206;DHT22;59358;52.134;5.596;2023-01-01T04:58:43;13.00;99.90
19206;DHT22;59358;52.134;5.596;2023-01-01T05:01:15;13.00;99.90
19206;DHT22;59358;52.134;5.596;2023-01-01T05:03:42;13.00;99.90
19206;DHT22;59358;52.134;5.596;2023-01-01T05:06:11;13.00;99.90
19206;DHT22;59358;52.134;5.596;2023-01-01T05:08:41;13.00;99.90
19206;DHT22;59358;52.134;5.596;2023-01-01T05:11:10;13.00;99.90
19206;DHT22;59358;52.134;5.596;2023-01-01T05:13:39;13.10;99.90
19206;DHT22;59358;52.134;5.596;2023-01-01T05:16:08;13.10;99.90
19206;DHT22;59358;52.134;5.596;2023-01-01T05:18:35;13.20;99.90
19206;DHT22;59358;52.134;5.596;2023-01-01T05:21:04;13.20;99.90
19206;DHT22;59358;52.134;5.596;2023-01-01T05:23:32;13.30;99.90
19206;DHT22;59358;52.134;5.596;2023-01-01T05:26:07;13.40;99.90
19206;DHT22;59358;52.134;5.596;2023-01-01T05:28:35;13.40;99.90
19206;DHT22;59358;52.134;5.596;2023-01-01T05:31:05;13.40;99.90
19206;DHT22;59358;52.134;5.596;2023-01-01T05:33:32;13.50;99.90
19206;DHT22;59358;52.134;5.596;2023-01-01T05:36:00;13.50;99.90
19206;DHT22;59358;52.134;5.596;2023-01-01T05:38:27;13.50;99.90
19206;DHT22;59358;52.134;5.596;2023-01-01T05:40:54;13.50;99.90
19206;DHT22;59358;52.134;5.596;2023-01-01T05:43:22;13.60;99.90
19206;DHT22;59358;52.134;5.596;2023-01-01T05:45:59;13.50;99.90
19206;DHT22;59358;52.134;5.596;2023-01-01T05:48:26;13.50;99.90
19206;DHT22;59358;52.134;5.596;2023-01-01T05:50:59;13.60;99.90
19206;DHT22;59358;52.134;5.596;2023-01-01T05:53:27;13.60;99.90
19206;DHT22;59358;52.134;5.596;2023-01-01T05:55:54;13.50;99.90
19206;DHT22;59358;52.134;5.596;2023-01-01T05:58:23;13.60;99.90
19206;DHT22;59358;52.134;5.596;2023-01-01T06:00:50;13.60;99.90
19206;DHT22;59358;52.134;5.596;2023-01-01T06:03:17;13.50;99.90
19206;DHT22;59358;52.134;5.596;2023-01-01T06:05:44;13.50;99.90
19206;DHT22;59358;52.134;5.596;2023-01-01T06:08:11;13.50;99.90
19206;DHT22;59358;52.134;5.596;2023-01-01T06:10:38;13.50;99.90
19206;DHT22;59358;52.134;5.596;2023-01-01T06:13:05;13.60;99.90
19206;DHT22;59358;52.134;5.596;2023-01-01T06:15:33;13.40;99.90
19206;DHT22;59358;52.134;5.596;2023-01-01T06:18:00;13.40;99.90
19206;DHT22;59358;52.134;5.596;2023-01-01T06:20:27;13.40;99.90
19206;DHT22;59358;52.134;5.596;2023-01-01T06:22:53;13.40;99.90
19206;DHT22;59358;52.134;5.596;2023-01-01T06:25:20;13.40;99.90
19206;DHT22;59358;52.134;5.596;2023-01-01T06:27:47;13.40;99.90
19206;DHT22;59358;52.134;5.596;2023-01-01T06:30:14;13.30;99.90
19206;DHT22;59358;52.134;5.596;2023-01-01T06:32:42;13.30;99.90
19206;DHT22;59358;52.134;5.596;2023-01-01T06:35:09;13.30;99.90
19206;DHT22;59358;52.134;5.596;2023-01-01T06:37:36;13.30;99.90
19206;DHT22;59358;52.134;5.596;2023-01-01T06:40:04;13.30;99.90
19206;DHT22;59358;52.134;5.596;2023-01-01T06:42:31;13.30;99.90
19206;DHT22;59358;52.134;5.596;2023-01-01T06:44:58;13.20;99.90
19206;DHT22;59358;52.134;5.596;2023-01-01T06:47:24;13.20;99.90
19206;DHT22;59358;52.134;5.596;2023-01-01T06:49:53;13.10;99.90
19206;DHT22;59358;52.134;5.596;2023-01-01T06:52:19;13.10;99.90
19206;DHT22;59358;52.134;5.596;2023-01-01T06:54:46;13.10;99.90
19206;DHT22;59358;52.134;5.596;2023-01-01T06:57:13;13.00;99.90
19206;DHT22;59358;52.134;5.596;2023-01-01T06:59:40;13.00;99.90
19206;DHT22;59358;52.134;5.596;2023-01-01T07:02:08;12.90;99.90
19206;DHT22;59358;52.134;5.596;2023-01-01T07:04:36;12.90;99.90
19206;DHT22;59358;52.134;5.596;2023-01-01T07:07:04;12.90;99.90
19206;DHT22;59358;52.134;5.596;2023-01-01T07:09:31;12.90;99.90
19206;DHT22;59358;52.134;5.596;2023-01-01T07:11:58;12.90;99.90
19206;DHT22;59358;52.134;5.596;2023-01-01T07:14:25;12.80;99.90
19206;DHT22;59358;52.134;5.596;2023-01-01T07:16:52;12.80;99.90
19206;DHT22;59358;52.134;5.596;2023-01-01T07:19:18;12.90;99.90
19206;DHT22;59358;52.134;5.596;2023-01-01T07:21:50;12.80;99.90
19206;DHT22;59358;52.134;5.596;2023-01-01T07:24:20;12.70;99.90
19206;DHT22;59358;52.134;5.596;2023-01-01T07:26:47;12.70;99.90
19206;DHT22;59358;52.134;5.596;2023-01-01T07:29:14;12.60;99.90
19206;DHT22;59358;52.134;5.596;2023-01-01T07:31:43;12.60;99.90
19206;DHT22;59358;52.134;5.596;2023-01-01T07:34:13;12.50;99.90
19206;DHT22;59358;52.134;5.596;2023-01-01T07:36:40;12.40;99.90
19206;DHT22;59358;52.134;5.596;2023-01-01T07:39:07;12.30;99.90
19206;DHT22;59358;52.134;5.596;2023-01-01T07:41:37;12.30;99.90
19206;DHT22;59358;52.134;5.596;2023-01-01T07:44:04;12.20;99.90
19206;DHT22;59358;52.134;5.596;2023-01-01T07:46:33;12.20;99.90
19206;DHT22;59358;52.134;5.596;2023-01-01T07:49:06;12.20;99.90
19206;DHT22;59358;52.134;5.596;2023-01-01T07:51:33;12.10;99.90
19206;DHT22;59358;52.134;5.596;2023-01-01T07:54:00;12.10;99.90
19206;DHT22;59358;52.134;5.596;2023-01-01T07:56:27;12.00;99.90
19206;DHT22;59358;52.134;5.596;2023-01-01T07:58:55;12.00;99.90
19206;DHT22;59358;52.134;5.596;2023-01-01T08:01:22;12.00;99.90
19206;DHT22;59358;52.134;5.596;2023-01-01T08:03:50;12.00;99.90
19206;DHT22;59358;52.134;5.596;2023-01-01T08:06:18;11.90;99.90
19206;DHT22;59358;52.134;5.596;2023-01-01T08:08:46;11.90;99.90
19206;DHT22;59358;52.134;5.596;2023-01-01T08:11:13;11.80;99.90
19206;DHT22;59358;52.134;5.596;2023-01-01T08:13:40;12.00;99.90
19206;DHT22;59358;52.134;5.596;2023-01-01T08:16:09;11.90;99.90
19206;DHT22;59358;52.134;5.596;2023-01-01T08:18:36;11.90;99.90
19206;DHT22;59358;52.134;5.596;2023-01-01T08:21:04;11.90;99.90
19206;DHT22;59358;52.134;5.596;2023-01-01T08:23:31;11.80;99.90
19206;DHT22;59358;52.134;5.596;2023-01-01T08:25:59;11.80;99.90
19206;DHT22;59358;52.134;5.596;2023-01-01T08:28:26;11.80;99.90
19206;DHT22;59358;52.134;5.596;2023-01-01T08:30:53;11.80;99.90
19206;DHT22;59358;52.134;5.596;2023-01-01T08:33:22;11.80;99.90
19206;DHT22;59358;52.134;5.596;2023-01-01T08:35:49;11.80;99.90
19206;DHT22;59358;52.134;5.596;2023-01-01T08:38:16;11.80;99.90
19206;DHT22;59358;52.134;5.596;2023-01-01T08:40:43;11.80;99.90
19206;DHT22;59358;52.134;5.596;2023-01-01T08:43:10;11.80;99.90
19206;DHT22;59358;52.134;5.596;2023-01-01T08:45:37;11.80;99.90
19206;DHT22;59358;52.134;5.596;2023-01-01T08:48:04;11.80;99.90
19206;DHT22;59358;52.134;5.596;2023-01-01T08:50:33;11.90;99.90
19206;DHT22;59358;52.134;5.596;2023-01-01T08:53:00;11.80;99.90
19206;DHT22;59358;52.134;5.596;2023-01-01T08:55:27;11.90;99.90
19206;DHT22;59358;52.134;5.596;2023-01-01T08:57:54;11.90;99.90
19206;DHT22;59358;52.134;5.596;2023-01-01T09:00:21;11.80;99.90
19206;DHT22;59358;52.134;5.596;2023-01-01T09:02:47;11.80;99.90
19206;DHT22;59358;52.134;5.596;2023-01-01T09:05:14;11.90;99.90
19206;DHT22;59358;52.134;5.596;2023-01-01T09:07:43;11.90;99.90
19206;DHT22;59358;52.134;5.596;2023-01-01T09:10:10;11.90;99.90
19206;DHT22;59358;52.134;5.596;2023-01-01T09:12:37;11.90;99.90
19206;DHT22;59358;52.134;5.596;2023-01-01T09:15:04;11.90;99.90
19206;DHT22;59358;52.134;5.596;2023-01-01T09:17:31;11.90;99.90
19206;DHT22;59358;52.134;5.596;2023-01-01T09:19:58;11.90;99.90
19206;DHT22;59358;52.134;5.596;2023-01-01T09:22:25;11.90;99.90
19206;DHT22;59358;52.134;5.596;2023-01-01T09:24:53;11.90;99.90
19206;DHT22;59358;52.134;5.596;2023-01-01T09:27:20;12.00;99.90
19206;DHT22;59358;52.134;5.596;2023-01-01T09:29:47;11.90;99.90
19206;DHT22;59358;52.134;5.596;2023-01-01T09:32:14;11.90;99.90
19206;DHT22;59358;52.134;5.596;2023-01-01T09:34:41;11.90;99.90
19206;DHT22;59358;52.134;5.596;2023-01-01T09:37:08;11.90;99.90
19206;DHT22;59358;52.134;5.596;2023-01-01T09:39:34;12.00;99.90
19206;DHT22;59358;52.134;5.596;2023-01-01T09:42:15;11.90;99.90
19206;DHT22;59358;52.134;5.596;2023-01-01T09:44:52;12.10;99.90
19206;DHT22;59358;52.134;5.596;2023-01-01T09:47:25;12.20;99.90
19206;DHT22;59358;52.134;5.596;2023-01-01T09:49:55;12.30;99.90
19206;DHT22;59358;52.134;5.596;2023-01-01T09:52:28;12.40;99.90
19206;DHT22;59358;52.134;5.596;2023-01-01T09:55:03;12.50;99.90
19206;DHT22;59358;52.134;5.596;2023-01-01T09:57:33;12.60;99.90
19206;DHT22;59358;52.134;5.596;2023-01-01T10:00:00;12.60;99.90
19206;DHT22;59358;52.134;5.596;2023-01-01T10:02:38;12.60;99.90
19206;DHT22;59358;52.134;5.596;2023-01-01T10:05:25;12.70;99.90
19206;DHT22;59358;52.134;5.596;2023-01-01T10:07:57;12.70;99.90
19206;DHT22;59358;52.134;5.596;2023-01-01T10:10:35;12.80;99.90
19206;DHT22;59358;52.134;5.596;2023-01-01T10:13:14;12.80;99.90
19206;DHT22;59358;52.134;5.596;2023-01-01T10:15:51;12.80;99.90
19206;DHT22;59358;52.134;5.596;2023-01-01T10:18:20;12.90;99.90
19206;DHT22;59358;52.134;5.596;2023-01-01T10:20:56;13.00;99.90
19206;DHT22;59358;52.134;5.596;2023-01-01T10:23:26;13.00;99.90
19206;DHT22;59358;52.134;5.596;2023-01-01T10:25:56;12.90;99.90
19206;DHT22;59358;52.134;5.596;2023-01-01T10:28:29;12.90;99.90
19206;DHT22;59358;52.134;5.596;2023-01-01T10:31:14;12.80;99.90
19206;DHT22;59358;52.134;5.596;2023-01-01T10:33:40;12.80;99.90
19206;DHT22;59358;52.134;5.596;2023-01-01T10:36:10;12.80;99.90
19206;DHT22;59358;52.134;5.596;2023-01-01T10:38:38;12.80;99.90
19206;DHT22;59358;52.134;5.596;2023-01-01T10:41:07;12.80;99.90
19206;DHT22;59358;52.134;5.596;2023-01-01T10:43:36;12.90;99.90
19206;DHT22;59358;52.134;5.596;2023-01-01T10:46:04;12.80;99.90
19206;DHT22;59358;52.134;5.596;2023-01-01T10:48:31;12.80;99.90
19206;DHT22;59358;52.134;5.596;2023-01-01T10:51:01;12.70;99.90
19206;DHT22;59358;52.134;5.596;2023-01-01T10:53:31;12.70;99.90
19206;DHT22;59358;52.134;5.596;2023-01-01T10:56:04;12.80;99.90
19206;DHT22;59358;52.134;5.596;2023-01-01T10:58:42;12.90;99.90
19206;DHT22;59358;52.134;5.596;2023-01-01T11:01:11;12.90;99.90
19206;DHT22;59358;52.134;5.596;2023-01-01T11:03:56;13.00;99.90
19206;DHT22;59358;52.134;5.596;2023-01-01T11:06:24;13.10;99.90
19206;DHT22;59358;52.134;5.596;2023-01-01T11:08:53;13.00;99.90
19206;DHT22;59358;52.134;5.596;2023-01-01T11:11:25;12.90;99.90
19206;DHT22;59358;52.134;5.596;2023-01-01T11:13:55;12.90;99.90
19206;DHT22;59358;52.134;5.596;2023-01-01T11:16:24;13.00;99.90
19206;DHT22;59358;52.134;5.596;2023-01-01T11:18:52;13.20;99.90
19206;DHT22;59358;52.134;5.596;2023-01-01T11:21:26;13.20;99.90
19206;DHT22;59358;52.134;5.596;2023-01-01T11:24:17;13.30;99.90
19206;DHT22;59358;52.134;5.596;2023-01-01T11:26:45;13.30;99.90
19206;DHT22;59358;52.134;5.596;2023-01-01T11:29:29;13.20;99.90
19206;DHT22;59358;52.134;5.596;2023-01-01T11:31:56;13.20;99.90
19206;DHT22;59358;52.134;5.596;2023-01-01T11:34:28;13.20;99.90
19206;DHT22;59358;52.134;5.596;2023-01-01T11:39:52;13.20;99.90
19206;DHT22;59358;52.134;5.596;2023-01-01T11:42:23;13.00;99.90
19206;DHT22;59358;52.134;5.596;2023-01-01T11:44:53;12.90;99.90
19206;DHT22;59358;52.134;5.596;2023-01-01T11:47:25;12.90;99.90
19206;DHT22;59358;52.134;5.596;2023-01-01T11:49:54;13.00;99.90
19206;DHT22;59358;52.134;5.596;2023-01-01T11:52:31;12.90;99.90
19206;DHT22;59358;52.134;5.596;2023-01-01T11:55:12;13.00;99.90
19206;DHT22;59358;52.134;5.596;2023-01-01T11:57:46;12.90;99.90
19206;DHT22;59358;52.134;5.596;2023-01-01T12:00:17;12.90;99.90
19206;DHT22;59358;52.134;5.596;2023-01-01T12:02:49;12.90;99.90
19206;DHT22;59358;52.134;5.596;2023-01-01T12:05:21;13.00;99.90
19206;DHT22;59358;52.134;5.596;2023-01-01T12:07:50;13.00;99.90
19206;DHT22;59358;52.134;5.596;2023-01-01T12:10:21;13.00;99.90
19206;DHT22;59358;52.134;5.596;2023-01-01T12:12:51;13.20;99.90
19206;DHT22;59358;52.134;5.596;2023-01-01T12:15:25;13.20;99.90
19206;DHT22;59358;52.134;5.596;2023-01-01T12:18:00;13.30;99.90
19206;DHT22;59358;52.134;5.596;2023-01-01T12:20:30;13.30;99.90
19206;DHT22;59358;52.134;5.596;2023-01-01T12:22:58;13.50;99.90
19206;DHT22;59358;52.134;5.596;2023-01-01T12:25:31;13.50;99.90
19206;DHT22;59358;52.134;5.596;2023-01-01T12:28:05;13.50;99.90
19206;DHT22;59358;52.134;5.596;2023-01-01T12:30:43;13.60;99.90
19206;DHT22;59358;52.134;5.596;2023-01-01T12:33:36;13.50;99.90
19206;DHT22;59358;52.134;5.596;2023-01-01T12:36:24;13.60;99.90
19206;DHT22;59358;52.134;5.596;2023-01-01T12:41:58;13.60;99.90
19206;DHT22;59358;52.134;5.596;2023-01-01T12:44:36;13.70;99.90
19206;DHT22;59358;52.134;5.596;2023-01-01T12:47:13;13.70;99.90
19206;DHT22;59358;52.134;5.596;2023-01-01T12:49:52;13.70;99.90
19206;DHT22;59358;52.134;5.596;2023-01-01T12:52:34;13.70;99.90
19206;DHT22;59358;52.134;5.596;2023-01-01T12:58:13;13.50;99.90
19206;DHT22;59358;52.134;5.596;2023-01-01T13:00:54;13.50;99.90
19206;DHT22;59358;52.134;5.596;2023-01-01T13:03:27;13.40;99.90
19206;DHT22;59358;52.134;5.596;2023-01-01T13:05:56;13.40;99.90
19206;DHT22;59358;52.134;5.596;2023-01-01T13:08:24;13.50;99.90
19206;DHT22;59358;52.134;5.596;2023-01-01T13:10:53;13.60;99.90
19206;DHT22;59358;52.134;5.596;2023-01-01T13:13:21;13.60;99.90
19206;DHT22;59358;52.134;5.596;2023-01-01T13:15:50;13.50;99.90
19206;DHT22;59358;52.134;5.596;2023-01-01T13:18:27;13.50;99.90
19206;DHT22;59358;52.134;5.596;2023-01-01T13:21:03;13.40;99.90
19206;DHT22;59358;52.134;5.596;2023-01-01T13:24:01;13.40;99.90
19206;DHT22;59358;52.134;5.596;2023-01-01T13:26:34;13.50;99.90
19206;DHT22;59358;52.134;5.596;2023-01-01T13:29:41;13.60;99.90
19206;DHT22;59358;52.134;5.596;2023-01-01T13:32:10;13.60;99.90
19206;DHT22;59358;52.134;5.596;2023-01-01T13:37:39;13.40;99.90
19206;DHT22;59358;52.134;5.596;2023-01-01T13:40:28;13.50;99.90
19206;DHT22;59358;52.134;5.596;2023-01-01T13:43:05;13.40;99.90
19206;DHT22;59358;52.134;5.596;2023-01-01T13:45:35;13.50;99.90
19206;DHT22;59358;52.134;5.596;2023-01-01T13:48:20;13.40;99.90
19206;DHT22;59358;52.134;5.596;2023-01-01T13:50:59;13.50;99.90
19206;DHT22;59358;52.134;5.596;2023-01-01T13:53:48;13.50;99.90
19206;DHT22;59358;52.134;5.596;2023-01-01T13:56:34;13.40;99.90
19206;DHT22;59358;52.134;5.596;2023-01-01T13:59:24;13.40;99.90
19206;DHT22;59358;52.134;5.596;2023-01-01T14:01:59;13.30;99.90
19206;DHT22;59358;52.134;5.596;2023-01-01T14:04:33;13.40;99.90
19206;DHT22;59358;52.134;5.596;2023-01-01T14:07:09;13.30;99.90
19206;DHT22;59358;52.134;5.596;2023-01-01T14:09:38;13.40;99.90
19206;DHT22;59358;52.134;5.596;2023-01-01T14:12:09;13.30;99.90
19206;DHT22;59358;52.134;5.596;2023-01-01T14:14:40;13.40;99.90
19206;DHT22;59358;52.134;5.596;2023-01-01T14:17:10;13.30;99.90
19206;DHT22;59358;52.134;5.596;2023-01-01T14:19:39;13.40;99.90
19206;DHT22;59358;52.134;5.596;2023-01-01T14:22:08;13.40;99.90
19206;DHT22;59358;52.134;5.596;2023-01-01T14:24:40;13.30;99.90
19206;DHT22;59358;52.134;5.596;2023-01-01T14:27:17;13.30;99.90
19206;DHT22;59358;52.134;5.596;2023-01-01T14:29:45;13.20;99.90
19206;DHT22;59358;52.134;5.596;2023-01-01T14:32:18;13.10;99.90
19206;DHT22;59358;52.134;5.596;2023-01-01T14:34:46;13.20;99.90
19206;DHT22;59358;52.134;5.596;2023-01-01T14:37:22;13.10;99.90
19206;DHT22;59358;52.134;5.596;2023-01-01T14:40:05;13.10;99.90
19206;DHT22;59358;52.134;5.596;2023-01-01T14:42:34;13.10;99.90
19206;DHT22;59358;52.134;5.596;2023-01-01T14:45:01;13.10;99.90
19206;DHT22;59358;52.134;5.596;2023-01-01T14:47:30;13.00;99.90
19206;DHT22;59358;52.134;5.596;2023-01-01T14:50:02;13.00;99.90
19206;DHT22;59358;52.134;5.596;2023-01-01T14:52:32;12.90;99.90
19206;DHT22;59358;52.134;5.596;2023-01-01T14:55:02;12.90;99.90
19206;DHT22;59358;52.134;5.596;2023-01-01T14:57:31;12.90;99.90
19206;DHT22;59358;52.134;5.596;2023-01-01T14:59:58;12.90;99.90
19206;DHT22;59358;52.134;5.596;2023-01-01T15:02:27;12.90;99.90
19206;DHT22;59358;52.134;5.596;2023-01-01T15:04:56;12.90;99.90
19206;DHT22;59358;52.134;5.596;2023-01-01T15:07:25;12.90;99.90
19206;DHT22;59358;52.134;5.596;2023-01-01T15:09:55;12.90;99.90
19206;DHT22;59358;52.134;5.596;2023-01-01T15:12:22;12.90;99.90
19206;DHT22;59358;52.134;5.596;2023-01-01T15:14:51;12.90;99.90
19206;DHT22;59358;52.134;5.596;2023-01-01T15:17:20;12.90;99.90
19206;DHT22;59358;52.134;5.596;2023-01-01T15:20:01;12.90;99.90
19206;DHT22;59358;52.134;5.596;2023-01-01T15:22:29;12.90;99.90
19206;DHT22;59358;52.134;5.596;2023-01-01T15:24:59;12.80;99.90
19206;DHT22;59358;52.134;5.596;2023-01-01T15:27:27;12.80;99.90
19206;DHT22;59358;52.134;5.596;2023-01-01T15:29:55;12.70;99.90
19206;DHT22;59358;52.134;5.596;2023-01-01T15:32:24;12.70;99.90
19206;DHT22;59358;52.134;5.596;2023-01-01T15:34:53;12.60;99.90
19206;DHT22;59358;52.134;5.596;2023-01-01T15:37:28;12.60;99.90
19206;DHT22;59358;52.134;5.596;2023-01-01T15:39:59;12.60;99.90
19206;DHT22;59358;52.134;5.596;2023-01-01T15:42:31;12.60;99.90
19206;DHT22;59358;52.134;5.596;2023-01-01T15:45:17;12.50;99.90
19206;DHT22;59358;52.134;5.596;2023-01-01T15:47:45;12.50;99.90
19206;DHT22;59358;52.134;5.596;2023-01-01T15:50:20;12.50;99.90
19206;DHT22;59358;52.134;5.596;2023-01-01T15:52:48;12.60;99.90
19206;DHT22;59358;52.134;5.596;2023-01-01T15:55:17;12.50;99.90
19206;DHT22;59358;52.134;5.596;2023-01-01T15:57:45;12.50;99.90
19206;DHT22;59358;52.134;5.596;2023-01-01T16:00:18;12.50;99.90
19206;DHT22;59358;52.134;5.596;2023-01-01T16:02:46;12.50;99.90